Time;durP1;ratioP1;P1;durP2;ratioP2;P2;SDS_P1;SDS_P2;PMS_P1;PMS_P2;Temp;Humidity;BMP_temperature;BMP_pressure;BME280_temperature;BME280_humidity;BME280_pressure;Samples;Min_cycle;Max_cycle;Signal;HPM_P1;HPM_P2
2022/07/03 00:01:58;;;;;;;7.10;4.80;;;;;;;13.01;100.00;98576.06;5123374;27;20339;-72
2022/07/03 00:04:24;;;;;;;5.65;4.25;;;;;;;12.98;100.00;98578.75;5121787;28;20027;-72
2022/07/03 00:06:49;;;;;;;5.55;4.40;;;;;;;13.00;100.00;98582.28;5108795;28;20031;-72
2022/07/03 00:09:15;;;;;;;8.77;5.88;;;;;;;13.00;100.00;98587.56;5125675;28;20031;-72
2022/07/03 00:11:40;;;;;;;7.90;5.35;;;;;;;12.94;100.00;98587.69;5123888;28;20219;-72
2022/07/03 00:14:06;;;;;;;9.90;5.72;;;;;;;13.00;100.00;98586.69;5123506;28;20019;-72
2022/07/03 00:16:31;;;;;;;9.85;6.15;;;;;;;13.00;100.00;98589.31;5120575;28;20246;-72
2022/07/03 00:18:57;;;;;;;7.85;4.45;;;;;;;12.89;100.00;98589.63;5120099;28;20024;-72
2022/07/03 00:21:46;;;;;;;8.88;4.82;;;;;;;12.99;100.00;98590.25;5124671;28;20103;-72
2022/07/03 00:24:25;;;;;;;6.70;3.88;;;;;;;12.82;100.00;98588.06;5124656;27;20092;-72
2022/07/03 00:26:52;;;;;;;4.95;3.38;;;;;;;12.72;100.00;98586.59;5119815;27;20040;-72
2022/07/03 00:29:21;;;;;;;6.13;4.72;;;;;;;12.79;100.00;98592.56;5122729;27;20027;-72
2022/07/03 00:31:47;;;;;;;5.85;4.72;;;;;;;12.82;100.00;98590.69;5123368;27;20035;-72
2022/07/03 00:34:15;;;;;;;6.28;3.67;;;;;;;12.74;100.00;98590.06;5133504;27;20026;-72
2022/07/03 00:36:41;;;;;;;8.60;5.03;;;;;;;12.84;100.00;98590.66;5122838;28;20091;-72
2022/07/03 00:39:07;;;;;;;6.93;4.18;;;;;;;12.83;100.00;98589.81;5125175;27;20030;-72
2022/07/03 00:41:34;;;;;;;6.18;3.28;;;;;;;12.61;100.00;98578.13;5124093;27;20027;-72
2022/07/03 00:44:00;;;;;;;6.72;3.55;;;;;;;12.56;100.00;98590.56;5119277;28;20019;-72
2022/07/03 00:46:27;;;;;;;9.02;2.70;;;;;;;12.48;100.00;98576.75;5124729;28;20091;-72
2022/07/03 00:48:54;;;;;;;6.68;4.15;;;;;;;12.54;100.00;98581.84;5124939;28;20029;-72
2022/07/03 00:51:24;;;;;;;10.05;3.38;;;;;;;12.54;100.00;98581.84;5123862;28;20223;-72
2022/07/03 00:53:55;;;;;;;7.47;4.00;;;;;;;12.53;100.00;98568.69;5122501;28;20211;-72
2022/07/03 00:56:28;;;;;;;7.13;4.25;;;;;;;12.55;100.00;98570.38;5124697;28;20215;-72
2022/07/03 00:58:56;;;;;;;6.30;3.60;;;;;;;12.58;100.00;98566.75;5121880;28;20076;-72
2022/07/03 01:01:25;;;;;;;15.23;4.40;;;;;;;12.54;100.00;98576.56;5121293;27;20034;-72
2022/07/03 01:04:03;;;;;;;16.83;8.85;;;;;;;12.44;100.00;98569.78;5123953;28;20015;-72
2022/07/03 01:06:34;;;;;;;8.60;5.50;;;;;;;12.43;100.00;98570.72;5121989;27;20030;-72
2022/07/03 01:09:05;;;;;;;14.43;5.28;;;;;;;12.40;100.00;98578.69;5124036;27;20094;-72
2022/07/03 01:12:06;;;;;;;17.33;5.72;;;;;;;12.34;100.00;98576.22;5125602;28;20039;-72
2022/07/03 01:14:53;;;;;;;15.75;5.93;;;;;;;12.28;100.00;98578.19;5123700;28;20024;-72
2022/07/03 01:17:28;;;;;;;12.32;8.98;;;;;;;12.12;100.00;98577.72;5124506;28;20315;-72
2022/07/03 01:20:02;;;;;;;17.67;9.77;;;;;;;12.01;100.00;98569.22;5123669;27;20037;-72
2022/07/03 01:22:42;;;;;;;21.85;14.55;;;;;;;12.04;100.00;98577.06;5124521;27;20043;-72
2022/07/03 01:25:17;;;;;;;14.25;10.23;;;;;;;12.00;100.00;98578.06;5122940;27;20057;-72
2022/07/03 01:28:00;;;;;;;12.20;6.38;;;;;;;12.01;100.00;98585.06;5124133;28;20030;-72
2022/07/03 01:30:32;;;;;;;7.60;5.63;;;;;;;12.08;100.00;98580.47;5122238;27;20024;-72
2022/07/03 01:33:09;;;;;;;11.95;8.40;;;;;;;11.98;100.00;98584.25;5123462;27;20230;-72
2022/07/03 01:35:40;;;;;;;14.85;8.15;;;;;;;11.77;100.00;98583.03;5123692;28;20028;-72
2022/07/03 01:38:12;;;;;;;7.40;5.00;;;;;;;11.90;100.00;98581.81;5124178;28;20024;-72
2022/07/03 01:40:40;;;;;;;12.20;8.70;;;;;;;11.83;100.00;98590.78;5124107;28;20031;-72
2022/07/03 01:43:09;;;;;;;8.88;7.05;;;;;;;11.90;100.00;98586.22;5122128;28;20092;-72
2022/07/03 01:45:55;;;;;;;11.85;5.80;;;;;;;11.93;100.00;98588.78;5124055;28;20087;-72
2022/07/03 01:48:23;;;;;;;11.85;6.22;;;;;;;11.87;100.00;98587.16;5123509;28;20028;-72
2022/07/03 01:50:49;;;;;;;8.07;5.70;;;;;;;11.70;100.00;98599.91;5118782;28;20030;-72
2022/07/03 01:53:16;;;;;;;10.85;5.63;;;;;;;11.79;100.00;98597.03;5123146;28;20068;-72
2022/07/03 01:55:42;;;;;;;13.68;5.75;;;;;;;11.61;100.00;98588.69;5109878;28;20019;-72
2022/07/03 01:58:09;;;;;;;9.25;5.88;;;;;;;11.64;100.00;98586.88;5107565;28;20027;-72
2022/07/03 02:01:10;;;;;;;11.68;5.75;;;;;;;11.56;100.00;98591.44;5123433;27;20038;-72
2022/07/03 02:03:41;;;;;;;8.02;5.07;;;;;;;11.60;100.00;98595.72;5123584;28;20368;-72
2022/07/03 02:06:16;;;;;;;12.30;5.60;;;;;;;11.65;100.00;98596.53;5123021;28;20095;-72
2022/07/03 02:08:49;;;;;;;5.03;3.85;;;;;;;11.57;100.00;98590.53;5124950;28;20057;-72
2022/07/03 02:11:17;;;;;;;7.70;4.90;;;;;;;11.51;100.00;98582.75;5123242;27;20039;-72
2022/07/03 02:13:51;;;;;;;7.13;4.50;;;;;;;11.51;100.00;98588.03;5124966;28;20019;-72
2022/07/03 02:16:20;;;;;;;7.93;4.50;;;;;;;11.43;100.00;98583.84;5122740;28;20031;-72
2022/07/03 02:18:55;;;;;;;9.95;4.82;;;;;;;11.55;100.00;98588.84;5123442;28;20102;-72
2022/07/03 02:21:21;;;;;;;4.90;3.65;;;;;;;11.49;100.00;98584.59;5122023;28;20343;-72
2022/07/03 02:24:15;;;;;;;9.93;4.63;;;;;;;11.60;100.00;98590.44;5122105;27;20024;-72
2022/07/03 02:26:42;;;;;;;6.57;4.07;;;;;;;11.37;100.00;98584.88;5118828;28;20047;-72
2022/07/03 02:29:15;;;;;;;8.88;4.40;;;;;;;11.36;100.00;98592.81;5122680;28;20073;-72
2022/07/03 02:31:44;;;;;;;6.85;4.25;;;;;;;11.19;100.00;98585.28;5117911;28;20297;-72
2022/07/03 02:34:15;;;;;;;11.20;4.07;;;;;;;11.18;100.00;98588.81;5123648;28;20034;-72
2022/07/03 02:36:45;;;;;;;9.77;4.45;;;;;;;11.24;100.00;98598.34;5123221;28;20030;-72
2022/07/03 02:39:18;;;;;;;8.73;4.30;;;;;;;11.21;100.00;98596.66;5122108;27;20107;-72
2022/07/03 02:41:52;;;;;;;5.88;4.40;;;;;;;11.20;100.00;98594.91;5121742;28;20111;-72
2022/07/03 02:44:25;;;;;;;7.03;4.30;;;;;;;11.18;100.00;98595.84;5122381;28;20019;-72
2022/07/03 02:47:20;;;;;;;9.00;4.90;;;;;;;11.09;100.00;98594.28;5108421;28;20082;-72
2022/07/03 02:50:08;;;;;;;6.10;4.70;;;;;;;11.16;100.00;98595.88;5122318;28;20031;-72
2022/07/03 02:52:42;;;;;;;9.95;4.53;;;;;;;11.13;100.00;98601.22;5121512;28;20084;-72
2022/07/03 02:55:20;;;;;;;9.55;4.55;;;;;;;11.14;100.00;98600.34;5123672;28;20323;-72
2022/07/03 02:57:55;;;;;;;5.65;4.20;;;;;;;11.06;100.00;98599.63;5122751;28;20023;-72
2022/07/03 03:00:23;;;;;;;6.88;4.50;;;;;;;11.08;100.00;98605.72;5122738;28;20027;-72
2022/07/03 03:02:55;;;;;;;7.15;4.50;;;;;;;11.07;100.00;98609.25;5122780;28;20019;-72
2022/07/03 03:05:28;;;;;;;6.72;4.15;;;;;;;10.98;100.00;98606.81;5122562;28;20031;-72
2022/07/03 03:08:30;;;;;;;16.10;4.97;;;;;;;11.04;100.00;98617.22;5122886;28;20311;-72
2022/07/03 03:11:02;;;;;;;6.72;4.50;;;;;;;11.05;100.00;98607.56;5119749;28;20023;-72
2022/07/03 03:13:31;;;;;;;11.13;4.53;;;;;;;10.94;100.00;98632.34;5119770;28;20024;-72
2022/07/03 03:16:07;;;;;;;7.47;4.78;;;;;;;11.06;100.00;98628.59;5121965;28;20251;-72
2022/07/03 03:18:36;;;;;;;10.20;4.35;;;;;;;10.95;100.00;98633.25;5116310;28;20308;-72
2022/07/03 03:21:05;;;;;;;7.75;5.00;;;;;;;10.90;100.00;98635.09;5122790;28;20307;-72
2022/07/03 03:23:43;;;;;;;9.60;5.00;;;;;;;10.95;100.00;98635.88;5122171;28;20035;-72
2022/07/03 03:26:10;;;;;;;10.77;5.30;;;;;;;10.93;100.00;98632.38;5122463;28;20042;-72
2022/07/03 03:28:36;;;;;;;7.57;4.70;;;;;;;11.03;100.00;98641.81;5121725;28;20019;-72
2022/07/03 03:31:02;;;;;;;11.32;4.47;;;;;;;10.97;100.00;98644.59;5121690;28;20020;-72
2022/07/03 03:33:27;;;;;;;6.45;4.50;;;;;;;11.00;100.00;98634.00;5122842;28;20048;-72
2022/07/03 03:35:53;;;;;;;9.65;4.63;;;;;;;11.02;100.00;98636.59;5122081;28;20320;-72
2022/07/03 03:38:18;;;;;;;6.75;4.28;;;;;;;11.07;100.00;98632.94;5122120;28;20076;-72
2022/07/03 03:40:45;;;;;;;7.93;3.92;;;;;;;11.14;100.00;98637.22;5122322;28;20030;-72
2022/07/03 03:43:10;;;;;;;7.85;4.32;;;;;;;11.18;100.00;98636.25;5122654;28;20027;-72
2022/07/03 03:45:35;;;;;;;7.90;4.30;;;;;;;11.10;100.00;98638.16;5122180;28;20033;-72
2022/07/03 03:48:01;;;;;;;7.80;4.80;;;;;;;11.16;100.00;98643.28;5121774;28;20032;-72
2022/07/03 03:50:27;;;;;;;8.60;4.25;;;;;;;11.21;100.00;98646.72;5122332;28;20030;-72
2022/07/03 03:52:52;;;;;;;7.05;3.90;;;;;;;11.19;100.00;98647.63;5122051;28;20051;-72
2022/07/03 03:55:18;;;;;;;6.43;4.53;;;;;;;11.23;100.00;98644.91;5125960;28;20268;-72
2022/07/03 03:57:43;;;;;;;8.40;3.90;;;;;;;11.13;100.00;98648.63;5126098;27;20088;-72
2022/07/03 04:00:09;;;;;;;6.35;3.90;;;;;;;11.19;100.00;98659.03;5125601;28;20032;-72
2022/07/03 04:02:34;;;;;;;6.13;4.45;;;;;;;11.26;100.00;98660.63;5126196;28;20434;-72
2022/07/03 04:05:00;;;;;;;7.82;4.13;;;;;;;11.22;100.00;98664.25;5125423;28;20106;-72
2022/07/03 04:07:25;;;;;;;7.07;4.20;;;;;;;11.22;100.00;98658.09;5125314;28;20031;-72
2022/07/03 04:09:51;;;;;;;7.07;4.63;;;;;;;11.27;100.00;98665.03;5125931;27;20027;-72
2022/07/03 04:12:17;;;;;;;5.63;4.22;;;;;;;11.26;100.00;98670.34;5125499;28;20230;-72
2022/07/03 04:14:42;;;;;;;7.82;4.88;;;;;;;11.38;100.00;98660.38;5123884;28;20036;-72
2022/07/03 04:17:07;;;;;;;13.60;4.45;;;;;;;11.45;100.00;98661.97;5125509;28;20050;-72
2022/07/03 04:19:33;;;;;;;9.95;4.63;;;;;;;11.47;100.00;98656.66;5125446;28;20068;-72
2022/07/03 04:21:59;;;;;;;8.48;4.40;;;;;;;11.48;100.00;98661.91;5125674;28;20072;-72
2022/07/03 04:24:24;;;;;;;13.00;4.20;;;;;;;11.55;100.00;98663.50;5125486;28;20046;-72
2022/07/03 04:26:49;;;;;;;8.93;4.40;;;;;;;11.66;100.00;98666.81;5124822;28;20030;-72
2022/07/03 04:29:15;;;;;;;7.43;4.15;;;;;;;11.73;100.00;98655.19;5125871;28;20349;-72
2022/07/03 04:31:40;;;;;;;8.88;4.25;;;;;;;11.74;100.00;98654.28;5124970;28;20023;-72
2022/07/03 04:34:06;;;;;;;6.32;3.70;;;;;;;11.85;100.00;98662.81;5115375;28;20030;-72
2022/07/03 04:36:31;;;;;;;7.43;3.80;;;;;;;12.67;100.00;98662.44;5124884;28;20030;-72
2022/07/03 04:38:56;;;;;;;8.73;4.22;;;;;;;14.15;96.13;98657.94;5125372;28;20233;-72
2022/07/03 04:41:22;;;;;;;7.03;3.10;;;;;;;15.79;86.41;98655.44;5125375;27;20050;-72
2022/07/03 04:43:47;;;;;;;6.32;3.55;;;;;;;17.01;79.55;98659.09;5124379;28;20051;-72
2022/07/03 04:46:12;;;;;;;7.03;3.05;;;;;;;17.97;74.42;98659.00;5124642;28;20034;-72
2022/07/03 04:48:38;;;;;;;3.53;2.17;;;;;;;18.67;71.63;98672.41;5125130;28;20016;-72
2022/07/03 04:51:03;;;;;;;7.93;2.80;;;;;;;19.27;69.56;98673.69;5124353;27;20026;-72
2022/07/03 04:53:29;;;;;;;4.85;2.60;;;;;;;19.73;67.57;98673.78;5124934;28;20030;-72
2022/07/03 04:55:54;;;;;;;4.20;2.55;;;;;;;19.82;65.62;98665.25;5124312;27;20141;-72
2022/07/03 04:58:19;;;;;;;7.63;2.13;;;;;;;19.74;66.51;98672.81;5124776;28;20087;-72
2022/07/03 05:00:45;;;;;;;7.03;2.10;;;;;;;19.31;67.78;98665.44;5123993;27;20015;-72
2022/07/03 05:03:12;;;;;;;2.70;2.00;;;;;;;18.90;71.14;98666.72;5124826;28;20035;-72
2022/07/03 05:05:37;;;;;;;15.63;4.10;;;;;;;19.82;69.40;98670.59;5124111;28;20058;-72
2022/07/03 05:08:03;;;;;;;7.45;2.70;;;;;;;20.78;65.17;98683.69;5124749;28;20024;-72
2022/07/03 05:10:28;;;;;;;5.65;2.00;;;;;;;21.67;63.41;98688.03;5124189;28;20048;-72
2022/07/03 05:12:54;;;;;;;7.72;2.03;;;;;;;22.12;61.68;98687.81;5124658;28;20023;-72
2022/07/03 05:15:20;;;;;;;3.28;1.80;;;;;;;21.26;64.09;98675.41;5122540;28;20231;-72
2022/07/03 05:17:45;;;;;;;8.35;2.85;;;;;;;21.46;61.73;98675.97;5125206;28;20019;-72
2022/07/03 05:20:29;;;;;;;7.18;2.53;;;;;;;21.84;62.69;98683.38;5123670;28;20023;-72
2022/07/03 05:22:56;;;;;;;3.47;1.80;;;;;;;22.72;60.16;98694.53;5123887;27;20027;-72
2022/07/03 05:25:22;;;;;;;7.00;2.05;;;;;;;23.09;59.42;98688.34;5123851;27;20047;-72
2022/07/03 05:27:50;;;;;;;12.63;1.70;;;;;;;22.73;60.56;98689.06;5124398;27;20388;-72
2022/07/03 05:30:15;;;;;;;5.20;2.05;;;;;;;22.83;59.57;98687.47;5123487;28;20219;-72
2022/07/03 05:32:41;;;;;;;3.67;1.98;;;;;;;23.91;59.41;98695.03;5123655;27;20039;-72
2022/07/03 05:35:07;;;;;;;3.55;1.42;;;;;;;24.58;58.44;98697.22;5124369;28;20031;-72
2022/07/03 05:37:33;;;;;;;4.32;1.50;;;;;;;25.00;57.97;98694.00;5123452;27;20319;-72
2022/07/03 05:39:58;;;;;;;5.70;1.40;;;;;;;25.54;55.97;98698.81;5123498;28;20094;-73
2022/07/03 05:42:23;;;;;;;7.95;2.65;;;;;;;25.69;56.55;98693.06;5124464;28;20023;-73
2022/07/03 05:44:49;;;;;;;5.75;1.90;;;;;;;25.51;57.04;98690.97;5123492;28;20196;-72
2022/07/03 05:47:14;;;;;;;5.20;1.75;;;;;;;25.88;57.59;98693.31;5123579;27;20233;-72
2022/07/03 05:49:40;;;;;;;5.53;2.05;;;;;;;26.48;54.97;98704.53;5123705;28;20031;-73
2022/07/03 05:52:05;;;;;;;9.15;2.35;;;;;;;26.57;54.60;98698.38;5123992;28;20051;-73
2022/07/03 05:54:30;;;;;;;3.53;1.73;;;;;;;26.77;54.69;98704.88;5123277;28;20030;-73
2022/07/03 05:56:56;;;;;;;8.23;1.80;;;;;;;26.93;53.57;98705.28;5123693;28;20086;-72
2022/07/03 05:59:21;;;;;;;4.38;1.70;;;;;;;27.14;53.39;98703.44;5123093;28;20027;-72
2022/07/03 06:01:47;;;;;;;2.53;1.50;;;;;;;27.72;52.26;98699.31;5123144;28;20035;-72
2022/07/03 06:04:12;;;;;;;2.85;1.40;;;;;;;27.37;52.48;98688.88;5123736;28;20188;-72
2022/07/03 06:06:38;;;;;;;6.47;1.50;;;;;;;27.67;52.27;98691.59;5120993;28;20072;-73
2022/07/03 06:09:03;;;;;;;2.60;1.50;;;;;;;28.13;51.64;98694.69;5123602;28;20330;-73
2022/07/03 06:11:28;;;;;;;5.32;1.33;;;;;;;28.72;48.92;98708.25;5123465;28;20027;-72
2022/07/03 06:13:54;;;;;;;4.32;1.40;;;;;;;29.23;48.14;98701.59;5122831;28;20027;-72
2022/07/03 06:16:19;;;;;;;3.42;1.45;;;;;;;29.05;47.12;98700.59;5122989;28;20082;-72
2022/07/03 06:18:45;;;;;;;5.43;1.73;;;;;;;29.70;47.33;98707.13;5123043;27;20380;-72
2022/07/03 06:21:10;;;;;;;5.30;1.58;;;;;;;29.99;45.89;98707.88;5123543;28;20020;-73
2022/07/03 06:23:36;;;;;;;2.15;1.52;;;;;;;30.64;45.43;98716.72;5122030;28;20043;-73
2022/07/03 06:26:01;;;;;;;6.38;1.73;;;;;;;30.89;43.64;98715.13;5122499;28;20035;-73
2022/07/03 06:28:26;;;;;;;2.65;1.33;;;;;;;31.04;43.47;98724.47;5122817;27;20019;-73
2022/07/03 06:30:52;;;;;;;4.47;1.33;;;;;;;31.20;42.14;98719.19;5124676;27;20345;-73
2022/07/03 06:33:17;;;;;;;3.88;1.45;;;;;;;31.20;41.87;98719.19;5122416;27;20073;-73
2022/07/03 06:35:43;;;;;;;2.95;1.30;;;;;;;31.42;42.72;98706.97;5122844;27;20402;-73
2022/07/03 06:38:09;;;;;;;7.03;1.40;;;;;;;30.47;42.37;98711.25;5122490;28;20031;-74
2022/07/03 06:40:35;;;;;;;3.63;1.25;;;;;;;30.07;44.19;98705.25;5122499;28;20055;-71
2022/07/03 06:43:00;;;;;;;2.80;1.30;;;;;;;30.26;43.01;98705.19;5122313;28;20026;-72
2022/07/03 06:45:25;;;;;;;3.65;1.10;;;;;;;30.74;42.77;98708.50;5122460;28;20326;-70
2022/07/03 06:47:51;;;;;;;4.30;1.20;;;;;;;30.75;41.54;98707.53;5122756;28;20043;-72
2022/07/03 06:50:16;;;;;;;5.00;1.52;;;;;;;31.54;41.29;98714.72;5122574;28;20042;-72
2022/07/03 06:52:42;;;;;;;10.43;1.25;;;;;;;31.18;41.26;98716.63;5122892;28;20023;-72
2022/07/03 06:55:07;;;;;;;8.27;1.48;;;;;;;31.01;41.80;98716.63;5122217;28;20031;-72
2022/07/03 06:57:33;;;;;;;1.50;1.00;;;;;;;31.49;39.27;98703.47;5122294;28;20023;-72
2022/07/03 06:59:58;;;;;;;5.03;1.10;;;;;;;31.17;41.51;98709.44;5122724;28;20031;-72
2022/07/03 07:02:23;;;;;;;2.58;1.30;;;;;;;30.89;41.98;98715.13;5121232;28;20246;-72
2022/07/03 07:04:49;;;;;;;1.98;1.10;;;;;;;31.92;39.18;98717.03;5122938;28;20032;-72
2022/07/03 07:07:14;;;;;;;2.78;1.10;;;;;;;31.64;41.11;98723.66;5122122;28;20019;-71
2022/07/03 07:09:40;;;;;;;3.08;1.15;;;;;;;32.14;38.51;98715.66;5122578;28;20031;-71
2022/07/03 07:12:05;;;;;;;2.72;1.27;;;;;;;32.13;40.93;98719.38;5122835;28;20134;-71
2022/07/03 07:14:31;;;;;;;2.13;1.10;;;;;;;32.72;39.43;98717.47;5122078;28;20031;-71
2022/07/03 07:16:56;;;;;;;1.60;1.20;;;;;;;32.13;39.47;98709.34;5122459;28;20031;-71
2022/07/03 07:19:21;;;;;;;1.83;1.00;;;;;;;31.75;40.23;98709.78;5121717;28;20050;-71
2022/07/03 07:21:47;;;;;;;6.40;1.13;;;;;;;32.21;39.33;98712.09;5122732;28;20020;-71
2022/07/03 07:24:12;;;;;;;9.20;1.30;;;;;;;33.32;38.35;98719.94;5122189;28;20043;-71
2022/07/03 07:26:38;;;;;;;4.68;1.15;;;;;;;34.09;38.60;98726.59;5122375;28;20044;-72
2022/07/03 07:29:03;;;;;;;7.38;1.33;;;;;;;33.81;39.10;98721.66;5123632;28;20019;-72
2022/07/03 07:31:29;;;;;;;2.33;1.00;;;;;;;34.04;37.02;98717.22;5126483;28;20118;-72
2022/07/03 07:33:54;;;;;;;2.22;1.00;;;;;;;33.74;37.23;98713.31;5125723;28;20069;-72
2022/07/03 07:36:19;;;;;;;3.85;1.17;;;;;;;34.43;37.28;98719.00;5127692;28;20028;-71
2022/07/03 07:38:45;;;;;;;5.60;1.20;;;;;;;33.90;38.52;98713.31;5125142;28;20223;-71
2022/07/03 07:41:10;;;;;;;4.28;1.20;;;;;;;34.33;36.39;98722.91;5126367;28;20041;-71
2022/07/03 07:43:35;;;;;;;1.98;1.10;;;;;;;33.77;37.91;98709.38;5125826;28;20027;-71
2022/07/03 07:46:01;;;;;;;3.90;1.02;;;;;;;34.00;37.98;98719.44;5126035;28;20030;-71
2022/07/03 07:48:26;;;;;;;3.38;1.02;;;;;;;34.29;36.75;98711.47;5127464;28;20197;-71
2022/07/03 07:50:51;;;;;;;4.15;1.17;;;;;;;33.56;37.27;98709.06;5125108;28;20041;-71
2022/07/03 07:53:18;;;;;;;3.28;1.20;;;;;;;33.76;37.55;98713.13;5125045;28;20027;-72
2022/07/03 07:55:43;;;;;;;7.03;1.30;;;;;;;33.96;36.08;98709.03;5123336;28;20031;-72
2022/07/03 07:58:09;;;;;;;6.53;1.02;;;;;;;34.78;36.02;98717.59;5125433;27;20019;-72
2022/07/03 08:00:34;;;;;;;5.47;1.27;;;;;;;34.70;35.31;98714.91;5125161;27;20063;-72
2022/07/03 08:05:43;;;;;;;3.42;1.10;;;;;;;35.36;34.17;98723.41;5123183;28;20065;-71
2022/07/03 08:08:14;;;;;;;4.38;0.98;;;;;;;35.57;34.85;98725.47;5125198;28;20019;-71
2022/07/03 08:10:49;;;;;;;6.57;1.00;;;;;;;35.56;34.23;98713.69;5124842;28;20039;-71
2022/07/03 08:13:17;;;;;;;3.90;1.20;;;;;;;35.11;33.70;98715.56;5125168;27;20341;-71
2022/07/03 08:15:44;;;;;;;2.03;0.93;;;;;;;33.92;36.36;98704.94;5123267;27;20091;-71
2022/07/03 08:18:10;;;;;;;3.80;1.00;;;;;;;34.24;36.00;98718.50;5123987;27;20020;-71
2022/07/03 08:20:36;;;;;;;2.25;0.90;;;;;;;34.89;35.54;98719.94;5125231;28;20039;-71
2022/07/03 08:23:02;;;;;;;4.47;1.00;;;;;;;34.80;35.63;98710.91;5122985;28;20023;-72
2022/07/03 08:25:29;;;;;;;1.33;0.93;;;;;;;33.95;35.89;98710.94;5123590;27;20041;-73
2022/07/03 08:27:55;;;;;;;6.32;1.20;;;;;;;34.30;34.31;98712.34;5123887;27;20090;-71
2022/07/03 08:30:20;;;;;;;10.93;1.25;;;;;;;34.32;37.48;98716.59;5123576;28;20031;-72
2022/07/03 08:32:50;;;;;;;4.00;1.13;;;;;;;33.95;35.41;98696.41;5124092;28;20113;-72
2022/07/03 08:35:16;;;;;;;1.25;0.98;;;;;;;34.53;35.75;98713.28;5123332;27;20028;-72
2022/07/03 08:37:43;;;;;;;9.80;1.00;;;;;;;35.19;33.52;98710.88;5124592;28;20015;-72
2022/07/03 08:40:10;;;;;;;3.42;1.00;;;;;;;34.75;33.45;98707.03;5121617;28;20239;-72
2022/07/03 08:42:43;;;;;;;3.13;1.00;;;;;;;35.50;32.53;98708.94;5123792;27;20343;-72
2022/07/03 08:45:15;;;;;;;7.18;1.20;;;;;;;34.60;34.66;98698.72;5122658;28;20326;-72
2022/07/03 08:47:42;;;;;;;4.93;0.95;;;;;;;34.22;34.62;98704.16;5123068;27;20024;-71
2022/07/03 08:50:10;;;;;;;4.35;0.98;;;;;;;34.48;33.51;98689.22;5123748;28;20023;-72
2022/07/03 08:52:36;;;;;;;3.80;1.40;;;;;;;34.73;35.16;98698.13;5123375;28;20036;-72
2022/07/03 08:55:03;;;;;;;4.00;2.33;;;;;;;34.82;34.35;98697.06;5124774;28;20029;-72
2022/07/03 08:57:31;;;;;;;5.00;1.08;;;;;;;34.90;34.10;98697.88;5121988;27;20275;-72
2022/07/03 08:59:58;;;;;;;7.63;1.20;;;;;;;34.46;33.97;98701.38;5124931;27;20383;-72
2022/07/03 09:02:25;;;;;;;2.17;0.98;;;;;;;34.75;33.88;98701.56;5123989;28;20027;-72
2022/07/03 09:04:51;;;;;;;7.30;1.05;;;;;;;34.27;34.25;98697.16;5123364;28;20447;-72
2022/07/03 09:07:18;;;;;;;5.00;0.88;;;;;;;34.53;34.67;98699.63;5121229;27;20031;-71
2022/07/03 09:09:44;;;;;;;3.15;1.00;;;;;;;35.21;33.40;98702.47;5118425;27;20072;-71
2022/07/03 09:12:10;;;;;;;5.60;1.00;;;;;;;35.25;33.90;98704.66;5123164;27;20086;-71
2022/07/03 09:14:36;;;;;;;3.83;1.00;;;;;;;35.38;32.65;98706.81;5123460;28;20032;-71
2022/07/03 09:17:01;;;;;;;3.15;1.00;;;;;;;35.44;32.94;98698.72;5123976;27;20103;-71
2022/07/03 09:19:46;;;;;;;2.28;0.98;;;;;;;35.15;32.52;98690.38;5121524;27;20224;-71
2022/07/03 09:22:37;;;;;;;3.88;0.90;;;;;;;35.66;32.62;98703.31;5122180;28;20038;-71
2022/07/03 09:25:10;;;;;;;4.35;1.25;;;;;;;34.99;33.14;98699.53;5118137;28;20042;-71
2022/07/03 09:27:48;;;;;;;4.93;1.20;;;;;;;34.99;33.14;98704.19;5119468;28;20291;-71
2022/07/03 09:30:13;;;;;;;3.70;0.88;;;;;;;34.96;33.06;98690.88;5122864;27;20073;-70
2022/07/03 09:32:43;;;;;;;1.88;1.00;;;;;;;34.53;33.27;98692.28;5123536;28;20019;-70
2022/07/03 09:35:12;;;;;;;5.63;1.10;;;;;;;35.14;30.81;98685.91;5122761;28;20274;-70
2022/07/03 09:37:38;;;;;;;1.52;1.00;;;;;;;34.53;32.60;98681.34;5117866;27;20028;-70
2022/07/03 09:40:04;;;;;;;3.13;0.90;;;;;;;34.86;34.24;98695.72;5124618;28;20035;-70
2022/07/03 09:42:29;;;;;;;4.38;0.90;;;;;;;35.06;32.98;98682.41;5123647;28;20310;-70
2022/07/03 09:44:54;;;;;;;2.90;1.00;;;;;;;34.52;33.30;98678.78;5124699;28;20100;-70
2022/07/03 09:47:23;;;;;;;5.78;0.90;;;;;;;34.67;33.49;98690.69;5124580;28;20028;-69
2022/07/03 09:49:57;;;;;;;3.22;0.85;;;;;;;34.98;33.15;98686.91;5123780;28;20028;-69
2022/07/03 09:52:35;;;;;;;3.80;0.98;;;;;;;33.72;34.12;98674.38;5123147;28;20040;-69
2022/07/03 09:55:11;;;;;;;4.22;1.20;;;;;;;34.34;35.04;98680.88;5121878;28;20019;-69
2022/07/03 09:57:59;;;;;;;6.03;1.00;;;;;;;33.08;35.72;98668.94;5122458;27;20076;-69
2022/07/03 10:00:25;;;;;;;1.77;0.85;;;;;;;33.19;35.20;98681.41;5124484;27;20264;-69
2022/07/03 10:02:55;;;;;;;8.02;1.00;;;;;;;33.79;35.06;98680.03;5123619;28;20011;-69
2022/07/03 10:05:25;;;;;;;7.47;1.48;;;;;;;33.52;33.28;98664.88;5123281;28;20375;-69
2022/07/03 10:07:51;;;;;;;2.22;0.70;;;;;;;34.11;33.74;98685.44;5119640;28;20030;-69
2022/07/03 10:10:19;;;;;;;3.30;0.85;;;;;;;33.84;33.01;98678.47;5122947;28;20019;-69
2022/07/03 10:12:46;;;;;;;3.85;1.00;;;;;;;34.16;33.40;98680.25;5122170;28;20023;-69
2022/07/03 10:15:13;;;;;;;2.75;1.00;;;;;;;34.33;32.37;98679.19;5123711;27;20054;-69
2022/07/03 10:17:40;;;;;;;3.25;1.10;;;;;;;33.25;31.97;98658.91;5115112;27;20057;-69
2022/07/03 10:20:06;;;;;;;6.90;1.33;;;;;;;33.42;34.47;98666.06;5121553;28;20110;-69
2022/07/03 10:22:38;;;;;;;6.32;1.00;;;;;;;34.04;33.10;98674.34;5122996;27;20019;-69
2022/07/03 10:25:05;;;;;;;2.42;1.20;;;;;;;34.25;31.44;98671.00;5122973;28;20080;-69
2022/07/03 10:27:31;;;;;;;3.60;0.88;;;;;;;33.33;34.20;98664.34;5123265;28;20061;-69
2022/07/03 10:29:58;;;;;;;3.90;0.80;;;;;;;33.13;33.00;98656.50;5122661;28;20388;-69
2022/07/03 10:32:27;;;;;;;3.85;0.90;;;;;;;32.54;34.11;98648.56;5123497;28;20054;-69
2022/07/03 10:34:52;;;;;;;2.08;0.80;;;;;;;33.36;34.24;98650.34;5122993;28;20016;-69
2022/07/03 10:37:21;;;;;;;2.55;0.90;;;;;;;33.57;35.90;98661.63;5123429;28;20027;-69
2022/07/03 10:39:55;;;;;;;4.03;1.00;;;;;;;33.97;33.94;98667.03;5121545;28;20245;-69
2022/07/03 10:45:18;;;;;;;5.53;1.00;;;;;;;33.67;33.40;98665.03;5123239;28;20027;-69
2022/07/03 10:47:50;;;;;;;4.25;0.95;;;;;;;33.85;35.06;98662.94;5122346;28;20223;-69
2022/07/03 10:50:21;;;;;;;1.58;0.55;;;;;;;33.13;35.92;98654.81;5123040;28;20061;-69
2022/07/03 10:52:47;;;;;;;2.40;0.80;;;;;;;33.35;35.05;98665.03;5122604;28;20019;-69
2022/07/03 10:55:14;;;;;;;1.55;0.70;;;;;;;32.69;34.73;98656.94;5122218;28;20047;-69
2022/07/03 10:57:42;;;;;;;2.97;0.85;;;;;;;32.28;32.77;98641.47;5122018;28;20020;-69
2022/07/03 11:00:18;;;;;;;5.32;1.23;;;;;;;32.14;32.23;98629.31;5122310;28;20028;-69
2022/07/03 11:02:49;;;;;;;1.55;0.80;;;;;;;32.26;33.63;98641.63;5120847;28;20024;-69
2022/07/03 11:05:20;;;;;;;3.95;0.90;;;;;;;32.59;34.19;98651.63;5122602;28;20024;-69
2022/07/03 11:07:52;;;;;;;2.35;1.00;;;;;;;32.72;34.11;98638.41;5121388;28;20043;-69
2022/07/03 11:10:17;;;;;;;1.77;0.80;;;;;;;32.12;33.35;98631.38;5119201;28;20038;-69
2022/07/03 11:13:15;;;;;;;3.30;0.70;;;;;;;32.38;34.70;98637.63;5121613;28;20269;-69
2022/07/03 11:15:42;;;;;;;3.45;1.05;;;;;;;31.77;34.17;98626.09;5119686;28;20032;-69
2022/07/03 11:18:27;;;;;;;2.50;0.77;;;;;;;32.48;34.04;98632.88;5123074;28;20346;-69
2022/07/03 11:20:53;;;;;;;2.67;0.70;;;;;;;33.02;34.11;98640.50;5122521;28;20031;-69
2022/07/03 11:23:27;;;;;;;4.35;1.00;;;;;;;32.17;36.68;98618.09;5122419;28;20315;-69
2022/07/03 11:25:54;;;;;;;4.60;0.82;;;;;;;31.52;37.00;98616.06;5122442;28;20342;-69
2022/07/03 11:28:31;;;;;;;2.58;0.90;;;;;;;30.90;38.26;98613.53;5123275;28;20028;-69
2022/07/03 11:31:18;;;;;;;3.17;0.95;;;;;;;31.53;37.58;98623.22;5122169;28;20028;-69
2022/07/03 11:33:43;;;;;;;3.60;1.00;;;;;;;31.18;37.82;98609.69;5122232;28;20270;-69
2022/07/03 11:36:10;;;;;;;4.78;0.93;;;;;;;31.39;38.87;98615.66;5121837;28;20035;-69
2022/07/03 11:38:36;;;;;;;7.75;1.20;;;;;;;31.44;36.62;98602.41;5122641;28;20020;-69
2022/07/03 11:41:09;;;;;;;3.13;0.60;;;;;;;30.85;36.72;98600.41;5121497;28;20307;-69
2022/07/03 11:43:35;;;;;;;3.22;1.05;;;;;;;30.18;39.27;98589.19;5118398;28;20039;-69